sensor_id;sensor_type;location;lat;lon;timestamp;temperature;humidity
22948;DHT22;11640;52.520;13.456;2022-11-04T00:04:53;9.00;99.90
22948;DHT22;11640;52.520;13.456;2022-11-04T00:09:55;8.90;99.90
22948;DHT22;11640;52.520;13.456;2022-11-04T00:14:57;8.80;99.90
22948;DHT22;11640;52.520;13.456;2022-11-04T00:20:19;8.80;99.90
22948;DHT22;11640;52.520;13.456;2022-11-04T00:25:39;8.90;99.90
22948;DHT22;11640;52.520;13.456;2022-11-04T00:31:02;8.80;99.90
22948;DHT22;11640;52.520;13.456;2022-11-04T00:36:23;8.80;99.90
22948;DHT22;11640;52.520;13.456;2022-11-04T00:41:25;8.80;99.90
22948;DHT22;11640;52.520;13.456;2022-11-04T00:46:30;8.80;99.90
22948;DHT22;11640;52.520;13.456;2022-11-04T00:51:32;8.80;99.90
22948;DHT22;11640;52.520;13.456;2022-11-04T00:56:37;8.70;99.90
22948;DHT22;11640;52.520;13.456;2022-11-04T01:01:39;8.70;99.90
22948;DHT22;11640;52.520;13.456;2022-11-04T01:06:41;8.60;99.90
22948;DHT22;11640;52.520;13.456;2022-11-04T01:11:43;8.50;99.90
22948;DHT22;11640;52.520;13.456;2022-11-04T01:16:45;8.50;99.90
22948;DHT22;11640;52.520;13.456;2022-11-04T01:21:50;8.40;99.90
22948;DHT22;11640;52.520;13.456;2022-11-04T01:26:51;8.50;99.90
22948;DHT22;11640;52.520;13.456;2022-11-04T01:31:53;8.50;99.90
22948;DHT22;11640;52.520;13.456;2022-11-04T01:36:55;8.50;99.90
22948;DHT22;11640;52.520;13.456;2022-11-04T01:41:57;8.60;99.90
22948;DHT22;11640;52.520;13.456;2022-11-04T01:46:59;8.60;99.90
22948;DHT22;11640;52.520;13.456;2022-11-04T01:52:07;8.60;99.90
22948;DHT22;11640;52.520;13.456;2022-11-04T01:57:14;8.70;99.90
22948;DHT22;11640;52.520;13.456;2022-11-04T02:02:18;8.70;99.90
22948;DHT22;11640;52.520;13.456;2022-11-04T02:07:20;8.80;99.90
22948;DHT22;11640;52.520;13.456;2022-11-04T02:12:22;8.80;99.90
22948;DHT22;11640;52.520;13.456;2022-11-04T02:17:59;8.80;99.90
22948;DHT22;11640;52.520;13.456;2022-11-04T02:38:55;8.80;99.90
22948;DHT22;11640;52.520;13.456;2022-11-04T02:49:39;8.70;99.90
22948;DHT22;11640;52.520;13.456;2022-11-04T02:54:52;8.70;99.90
22948;DHT22;11640;52.520;13.456;2022-11-04T03:00:00;8.60;99.90
22948;DHT22;11640;52.520;13.456;2022-11-04T03:05:04;8.60;99.90
22948;DHT22;11640;52.520;13.456;2022-11-04T03:10:15;8.50;99.90
22948;DHT22;11640;52.520;13.456;2022-11-04T03:15:22;8.50;99.90
22948;DHT22;11640;52.520;13.456;2022-11-04T03:20:26;8.40;99.90
22948;DHT22;11640;52.520;13.456;2022-11-04T03:25:36;8.30;99.90
22948;DHT22;11640;52.520;13.456;2022-11-04T03:30:43;8.40;99.90
22948;DHT22;11640;52.520;13.456;2022-11-04T03:35:45;8.40;99.90
22948;DHT22;11640;52.520;13.456;2022-11-04T03:40:47;8.50;99.90
22948;DHT22;11640;52.520;13.456;2022-11-04T03:45:49;8.50;99.90
22948;DHT22;11640;52.520;13.456;2022-11-04T03:50:51;8.60;99.90
22948;DHT22;11640;52.520;13.456;2022-11-04T03:56:20;8.70;99.90
22948;DHT22;11640;52.520;13.456;2022-11-04T04:01:51;8.80;99.90
22948;DHT22;11640;52.520;13.456;2022-11-04T04:07:15;8.80;99.90
22948;DHT22;11640;52.520;13.456;2022-11-04T04:17:36;8.90;99.90
22948;DHT22;11640;52.520;13.456;2022-11-04T04:23:15;8.90;99.90
22948;DHT22;11640;52.520;13.456;2022-11-04T04:28:36;8.90;99.90
22948;DHT22;11640;52.520;13.456;2022-11-04T04:33:38;9.00;99.90
22948;DHT22;11640;52.520;13.456;2022-11-04T04:38:41;9.00;99.90
22948;DHT22;11640;52.520;13.456;2022-11-04T04:44:03;9.00;99.90
22948;DHT22;11640;52.520;13.456;2022-11-04T04:49:23;9.00;99.90
22948;DHT22;11640;52.520;13.456;2022-11-04T04:54:25;9.10;99.90
22948;DHT22;11640;52.520;13.456;2022-11-04T04:59:27;9.10;99.90
22948;DHT22;11640;52.520;13.456;2022-11-04T05:04:29;9.20;99.90
22948;DHT22;11640;52.520;13.456;2022-11-04T05:09:31;9.20;99.90
22948;DHT22;11640;52.520;13.456;2022-11-04T05:14:32;9.20;99.90
22948;DHT22;11640;52.520;13.456;2022-11-04T05:19:34;9.30;99.90
22948;DHT22;11640;52.520;13.456;2022-11-04T05:24:36;9.30;99.90
22948;DHT22;11640;52.520;13.456;2022-11-04T05:29:38;9.30;99.90
22948;DHT22;11640;52.520;13.456;2022-11-04T05:34:40;9.30;99.90
22948;DHT22;11640;52.520;13.456;2022-11-04T05:39:41;9.40;99.90
22948;DHT22;11640;52.520;13.456;2022-11-04T05:44:43;9.50;99.90
22948;DHT22;11640;52.520;13.456;2022-11-04T05:49:45;9.50;99.90
22948;DHT22;11640;52.520;13.456;2022-11-04T05:54:47;9.50;99.90
22948;DHT22;11640;52.520;13.456;2022-11-04T05:59:48;9.60;99.90
22948;DHT22;11640;52.520;13.456;2022-11-04T06:04:50;9.60;99.90
22948;DHT22;11640;52.520;13.456;2022-11-04T06:09:52;9.60;99.90
22948;DHT22;11640;52.520;13.456;2022-11-04T06:14:54;9.60;99.90
22948;DHT22;11640;52.520;13.456;2022-11-04T06:19:56;9.50;99.90
22948;DHT22;11640;52.520;13.456;2022-11-04T06:24:58;9.50;99.90
22948;DHT22;11640;52.520;13.456;2022-11-04T06:30:00;9.50;99.90
22948;DHT22;11640;52.520;13.456;2022-11-04T06:35:02;9.60;99.90
22948;DHT22;11640;52.520;13.456;2022-11-04T06:40:04;9.60;99.90
22948;DHT22;11640;52.520;13.456;2022-11-04T06:45:07;9.70;99.90
22948;DHT22;11640;52.520;13.456;2022-11-04T06:50:09;9.80;99.90
22948;DHT22;11640;52.520;13.456;2022-11-04T06:55:12;9.80;99.90
22948;DHT22;11640;52.520;13.456;2022-11-04T07:00:14;9.90;99.90
22948;DHT22;11640;52.520;13.456;2022-11-04T07:05:16;9.90;99.90
22948;DHT22;11640;52.520;13.456;2022-11-04T07:10:18;9.90;99.90
22948;DHT22;11640;52.520;13.456;2022-11-04T07:15:20;10.00;99.90
22948;DHT22;11640;52.520;13.456;2022-11-04T07:20:28;10.10;99.90
22948;DHT22;11640;52.520;13.456;2022-11-04T07:25:30;10.20;99.90
22948;DHT22;11640;52.520;13.456;2022-11-04T07:30:31;10.30;99.90
22948;DHT22;11640;52.520;13.456;2022-11-04T07:35:35;10.30;99.90
22948;DHT22;11640;52.520;13.456;2022-11-04T07:40:36;10.30;99.90
22948;DHT22;11640;52.520;13.456;2022-11-04T07:45:40;10.40;99.90
22948;DHT22;11640;52.520;13.456;2022-11-04T07:50:42;10.40;99.90
22948;DHT22;11640;52.520;13.456;2022-11-04T07:55:43;10.50;99.90
22948;DHT22;11640;52.520;13.456;2022-11-04T08:00:50;10.70;99.90
22948;DHT22;11640;52.520;13.456;2022-11-04T08:05:54;10.90;99.90
22948;DHT22;11640;52.520;13.456;2022-11-04T08:11:04;11.10;99.90
22948;DHT22;11640;52.520;13.456;2022-11-04T08:16:10;11.20;99.90
22948;DHT22;11640;52.520;13.456;2022-11-04T08:21:15;11.30;99.90
22948;DHT22;11640;52.520;13.456;2022-11-04T08:26:18;11.40;99.90
22948;DHT22;11640;52.520;13.456;2022-11-04T08:31:21;11.40;99.90
22948;DHT22;11640;52.520;13.456;2022-11-04T08:36:32;11.30;99.90
22948;DHT22;11640;52.520;13.456;2022-11-04T08:41:35;11.30;99.90
22948;DHT22;11640;52.520;13.456;2022-11-04T08:46:39;11.40;99.90
22948;DHT22;11640;52.520;13.456;2022-11-04T08:51:43;11.40;99.90
22948;DHT22;11640;52.520;13.456;2022-11-04T08:56:45;11.50;99.90
22948;DHT22;11640;52.520;13.456;2022-11-04T09:01:47;11.60;99.90
22948;DHT22;11640;52.520;13.456;2022-11-04T09:06:49;11.70;99.90
22948;DHT22;11640;52.520;13.456;2022-11-04T09:11:52;11.70;99.90
22948;DHT22;11640;52.520;13.456;2022-11-04T09:16:54;11.70;99.90
22948;DHT22;11640;52.520;13.456;2022-11-04T09:21:56;11.80;99.90
22948;DHT22;11640;52.520;13.456;2022-11-04T09:26:58;11.70;99.90
22948;DHT22;11640;52.520;13.456;2022-11-04T09:32:02;11.60;99.90
22948;DHT22;11640;52.520;13.456;2022-11-04T09:37:06;11.70;99.90
22948;DHT22;11640;52.520;13.456;2022-11-04T09:47:35;11.80;99.90
22948;DHT22;11640;52.520;13.456;2022-11-04T09:52:43;11.90;99.90
22948;DHT22;11640;52.520;13.456;2022-11-04T09:57:53;11.90;99.90
22948;DHT22;11640;52.520;13.456;2022-11-04T10:29:04;11.90;99.90
22948;DHT22;11640;52.520;13.456;2022-11-04T10:34:31;11.90;99.90
22948;DHT22;11640;52.520;13.456;2022-11-04T10:39:42;11.80;99.90
22948;DHT22;11640;52.520;13.456;2022-11-04T10:44:44;11.80;99.90
22948;DHT22;11640;52.520;13.456;2022-11-04T10:49:59;11.80;99.90
22948;DHT22;11640;52.520;13.456;2022-11-04T10:56:00;11.80;99.90
22948;DHT22;11640;52.520;13.456;2022-11-04T11:01:32;11.80;99.90
22948;DHT22;11640;52.520;13.456;2022-11-04T11:06:37;11.80;99.90
22948;DHT22;11640;52.520;13.456;2022-11-04T11:11:47;11.90;99.90
22948;DHT22;11640;52.520;13.456;2022-11-04T11:16:49;12.00;99.90
22948;DHT22;11640;52.520;13.456;2022-11-04T11:21:54;12.00;99.90
22948;DHT22;11640;52.520;13.456;2022-11-04T11:27:09;12.00;99.90
22948;DHT22;11640;52.520;13.456;2022-11-04T11:32:32;11.90;99.90
22948;DHT22;11640;52.520;13.456;2022-11-04T11:37:34;11.80;99.90
22948;DHT22;11640;52.520;13.456;2022-11-04T11:42:40;11.80;99.90
22948;DHT22;11640;52.520;13.456;2022-11-04T11:47:42;11.70;99.90
22948;DHT22;11640;52.520;13.456;2022-11-04T11:52:46;11.70;99.90
22948;DHT22;11640;52.520;13.456;2022-11-04T12:03:45;11.60;99.90
22948;DHT22;11640;52.520;13.456;2022-11-04T12:09:11;11.50;99.90
22948;DHT22;11640;52.520;13.456;2022-11-04T12:14:27;11.50;99.90
22948;DHT22;11640;52.520;13.456;2022-11-04T12:19:52;11.50;99.90
22948;DHT22;11640;52.520;13.456;2022-11-04T12:30:21;11.30;99.90
22948;DHT22;11640;52.520;13.456;2022-11-04T12:36:01;11.30;99.90
22948;DHT22;11640;52.520;13.456;2022-11-04T12:41:45;11.40;99.90
22948;DHT22;11640;52.520;13.456;2022-11-04T12:47:44;11.30;99.90
22948;DHT22;11640;52.520;13.456;2022-11-04T12:53:32;11.30;99.90
22948;DHT22;11640;52.520;13.456;2022-11-04T12:58:36;11.30;99.90
22948;DHT22;11640;52.520;13.456;2022-11-04T13:03:57;11.30;99.90
22948;DHT22;11640;52.520;13.456;2022-11-04T13:09:08;11.20;99.90
22948;DHT22;11640;52.520;13.456;2022-11-04T13:14:21;11.20;99.90
22948;DHT22;11640;52.520;13.456;2022-11-04T13:19:49;11.20;99.90
22948;DHT22;11640;52.520;13.456;2022-11-04T13:35:29;11.40;99.90
22948;DHT22;11640;52.520;13.456;2022-11-04T13:51:12;11.40;99.90
22948;DHT22;11640;52.520;13.456;2022-11-04T13:56:37;11.30;99.90
22948;DHT22;11640;52.520;13.456;2022-11-04T14:01:39;11.20;99.90
22948;DHT22;11640;52.520;13.456;2022-11-04T14:27:52;11.20;99.90
22948;DHT22;11640;52.520;13.456;2022-11-04T14:32:57;11.20;99.90
22948;DHT22;11640;52.520;13.456;2022-11-04T14:38:05;11.20;99.90
22948;DHT22;11640;52.520;13.456;2022-11-04T14:43:30;11.10;99.90
22948;DHT22;11640;52.520;13.456;2022-11-04T14:48:34;11.10;99.90
22948;DHT22;11640;52.520;13.456;2022-11-04T14:53:36;11.20;99.90
22948;DHT22;11640;52.520;13.456;2022-11-04T14:58:54;11.10;99.90
22948;DHT22;11640;52.520;13.456;2022-11-04T15:04:07;11.20;99.90
22948;DHT22;11640;52.520;13.456;2022-11-04T15:09:31;11.10;99.90
22948;DHT22;11640;52.520;13.456;2022-11-04T15:14:35;11.10;99.90
22948;DHT22;11640;52.520;13.456;2022-11-04T15:19:38;11.00;99.90
22948;DHT22;11640;52.520;13.456;2022-11-04T15:24:41;11.00;99.90
22948;DHT22;11640;52.520;13.456;2022-11-04T15:29:54;11.00;99.90
22948;DHT22;11640;52.520;13.456;2022-11-04T15:34:57;11.00;99.90
22948;DHT22;11640;52.520;13.456;2022-11-04T15:40:00;10.90;99.90
22948;DHT22;11640;52.520;13.456;2022-11-04T15:45:33;10.90;99.90
22948;DHT22;11640;52.520;13.456;2022-11-04T15:50:36;10.90;99.90
22948;DHT22;11640;52.520;13.456;2022-11-04T15:55:41;10.80;99.90
22948;DHT22;11640;52.520;13.456;2022-11-04T16:00:55;10.70;99.90
22948;DHT22;11640;52.520;13.456;2022-11-04T16:06:05;10.80;99.90
22948;DHT22;11640;52.520;13.456;2022-11-04T16:11:18;10.70;99.90
22948;DHT22;11640;52.520;13.456;2022-11-04T16:16:24;10.80;99.90
22948;DHT22;11640;52.520;13.456;2022-11-04T16:26:39;10.80;99.90
22948;DHT22;11640;52.520;13.456;2022-11-04T16:31:42;10.70;99.90
22948;DHT22;11640;52.520;13.456;2022-11-04T16:36:43;10.70;99.90
22948;DHT22;11640;52.520;13.456;2022-11-04T16:41:45;10.60;99.90
22948;DHT22;11640;52.520;13.456;2022-11-04T16:46:48;10.60;99.90
22948;DHT22;11640;52.520;13.456;2022-11-04T16:51:54;10.60;99.90
22948;DHT22;11640;52.520;13.456;2022-11-04T16:56:56;10.70;99.90
22948;DHT22;11640;52.520;13.456;2022-11-04T17:01:59;10.60;99.90
22948;DHT22;11640;52.520;13.456;2022-11-04T17:07:01;10.60;99.90
22948;DHT22;11640;52.520;13.456;2022-11-04T17:12:03;10.60;99.90
22948;DHT22;11640;52.520;13.456;2022-11-04T17:17:05;10.60;99.90
22948;DHT22;11640;52.520;13.456;2022-11-04T17:22:09;10.70;99.90
22948;DHT22;11640;52.520;13.456;2022-11-04T17:27:11;10.70;99.90
22948;DHT22;11640;52.520;13.456;2022-11-04T17:32:13;10.60;99.90
22948;DHT22;11640;52.520;13.456;2022-11-04T17:37:15;10.60;99.90
22948;DHT22;11640;52.520;13.456;2022-11-04T17:42:17;10.70;99.90
22948;DHT22;11640;52.520;13.456;2022-11-04T17:47:37;10.60;99.90
22948;DHT22;11640;52.520;13.456;2022-11-04T17:52:39;10.60;99.90
22948;DHT22;11640;52.520;13.456;2022-11-04T17:57:42;10.60;99.90
22948;DHT22;11640;52.520;13.456;2022-11-04T18:02:44;10.60;99.90
22948;DHT22;11640;52.520;13.456;2022-11-04T18:07:46;10.60;99.90
22948;DHT22;11640;52.520;13.456;2022-11-04T18:12:48;10.60;99.90
22948;DHT22;11640;52.520;13.456;2022-11-04T18:17:51;10.50;99.90
22948;DHT22;11640;52.520;13.456;2022-11-04T18:22:53;10.50;99.90
22948;DHT22;11640;52.520;13.456;2022-11-04T18:27:55;10.50;99.90
22948;DHT22;11640;52.520;13.456;2022-11-04T18:32:57;10.50;99.90
22948;DHT22;11640;52.520;13.456;2022-11-04T18:37:59;10.60;99.90
22948;DHT22;11640;52.520;13.456;2022-11-04T18:43:01;10.50;99.90
22948;DHT22;11640;52.520;13.456;2022-11-04T18:48:09;10.40;99.90
22948;DHT22;11640;52.520;13.456;2022-11-04T18:53:11;10.40;99.90
22948;DHT22;11640;52.520;13.456;2022-11-04T18:58:13;10.40;99.90
22948;DHT22;11640;52.520;13.456;2022-11-04T19:03:15;10.40;99.90
22948;DHT22;11640;52.520;13.456;2022-11-04T19:08:17;10.30;99.90
22948;DHT22;11640;52.520;13.456;2022-11-04T19:13:18;10.30;99.90
22948;DHT22;11640;52.520;13.456;2022-11-04T19:18:21;10.30;99.90
22948;DHT22;11640;52.520;13.456;2022-11-04T19:23:23;10.40;99.90
22948;DHT22;11640;52.520;13.456;2022-11-04T19:28:25;10.30;99.90
22948;DHT22;11640;52.520;13.456;2022-11-04T19:33:45;10.30;99.90
22948;DHT22;11640;52.520;13.456;2022-11-04T19:38:51;10.30;99.90
22948;DHT22;11640;52.520;13.456;2022-11-04T19:43:53;10.30;99.90
22948;DHT22;11640;52.520;13.456;2022-11-04T19:48:55;10.30;99.90
22948;DHT22;11640;52.520;13.456;2022-11-04T19:53:58;10.20;99.90
22948;DHT22;11640;52.520;13.456;2022-11-04T19:59:00;10.20;99.90
22948;DHT22;11640;52.520;13.456;2022-11-04T20:04:06;10.30;99.90
22948;DHT22;11640;52.520;13.456;2022-11-04T20:09:09;10.30;99.90
22948;DHT22;11640;52.520;13.456;2022-11-04T20:14:11;10.30;99.90
22948;DHT22;11640;52.520;13.456;2022-11-04T20:19:13;10.30;99.90
22948;DHT22;11640;52.520;13.456;2022-11-04T20:24:22;10.20;99.90
22948;DHT22;11640;52.520;13.456;2022-11-04T20:29:25;10.30;99.90
22948;DHT22;11640;52.520;13.456;2022-11-04T20:34:27;10.20;99.90
22948;DHT22;11640;52.520;13.456;2022-11-04T20:39:33;10.20;99.90
22948;DHT22;11640;52.520;13.456;2022-11-04T20:44:35;10.20;99.90
22948;DHT22;11640;52.520;13.456;2022-11-04T20:49:37;10.20;99.90
22948;DHT22;11640;52.520;13.456;2022-11-04T20:54:39;10.20;99.90
22948;DHT22;11640;52.520;13.456;2022-11-04T20:59:41;10.30;99.90
22948;DHT22;11640;52.520;13.456;2022-11-04T21:04:43;10.30;99.90
22948;DHT22;11640;52.520;13.456;2022-11-04T21:09:45;10.20;99.90
22948;DHT22;11640;52.520;13.456;2022-11-04T21:14:46;10.20;99.90
22948;DHT22;11640;52.520;13.456;2022-11-04T21:19:48;10.30;99.90
22948;DHT22;11640;52.520;13.456;2022-11-04T21:24:50;10.30;99.90
22948;DHT22;11640;52.520;13.456;2022-11-04T21:29:52;10.20;99.90
22948;DHT22;11640;52.520;13.456;2022-11-04T21:34:54;10.10;99.90
22948;DHT22;11640;52.520;13.456;2022-11-04T21:39:55;10.10;99.90
22948;DHT22;11640;52.520;13.456;2022-11-04T21:44:57;10.10;99.90
22948;DHT22;11640;52.520;13.456;2022-11-04T21:49:59;10.10;99.90
22948;DHT22;11640;52.520;13.456;2022-11-04T21:55:01;10.10;99.90
22948;DHT22;11640;52.520;13.456;2022-11-04T22:00:08;10.10;99.90
22948;DHT22;11640;52.520;13.456;2022-11-04T22:05:12;10.00;99.90
22948;DHT22;11640;52.520;13.456;2022-11-04T22:10:15;10.00;99.90
22948;DHT22;11640;52.520;13.456;2022-11-04T22:15:17;10.00;99.90
22948;DHT22;11640;52.520;13.456;2022-11-04T22:20:39;10.00;99.90
22948;DHT22;11640;52.520;13.456;2022-11-04T22:25:41;10.00;99.90
22948;DHT22;11640;52.520;13.456;2022-11-04T22:30:50;10.00;99.90
22948;DHT22;11640;52.520;13.456;2022-11-04T22:35:52;10.00;99.90
22948;DHT22;11640;52.520;13.456;2022-11-04T22:40:55;10.00;99.90
22948;DHT22;11640;52.520;13.456;2022-11-04T22:46:03;10.00;99.90
22948;DHT22;11640;52.520;13.456;2022-11-04T22:51:06;10.00;99.90
22948;DHT22;11640;52.520;13.456;2022-11-04T22:56:12;10.00;99.90
22948;DHT22;11640;52.520;13.456;2022-11-04T23:01:14;10.10;99.90
22948;DHT22;11640;52.520;13.456;2022-11-04T23:06:16;10.10;99.90
22948;DHT22;11640;52.520;13.456;2022-11-04T23:11:21;10.20;99.90
22948;DHT22;11640;52.520;13.456;2022-11-04T23:16:43;10.10;99.90
22948;DHT22;11640;52.520;13.456;2022-11-04T23:22:05;10.10;99.90
22948;DHT22;11640;52.520;13.456;2022-11-04T23:27:25;10.00;99.90
22948;DHT22;11640;52.520;13.456;2022-11-04T23:33:07;10.00;99.90
22948;DHT22;11640;52.520;13.456;2022-11-04T23:38:09;10.00;99.90
22948;DHT22;11640;52.520;13.456;2022-11-04T23:43:11;10.10;99.90
22948;DHT22;11640;52.520;13.456;2022-11-04T23:48:14;10.00;99.90
22948;DHT22;11640;52.520;13.456;2022-11-04T23:53:34;9.90;99.90
22948;DHT22;11640;52.520;13.456;2022-11-04T23:58:54;10.00;99.90
